Terminal Aerodrome Forecast
Issued by NWS

Home | Current Version | Previous Version | Text Only | Print | Product List | Glossary On
Versions: 1 2 3 4 5 6 7 8 9 10 11 12 13 14 15 16 17 18
000
FTUS42 KILM 241700
TAFCRE
TAF
KCRE 241739Z 2418/2518 10011KT P6SM SKC
     FM250200 VRB02KT P6SM SKC
     FM250800 00000KT P6SM VCSH BKN020
     FM251500 20009KT P6SM VCSH BKN035=

USA.gov is the U.S. government's official web portal to all federal, state and local government web resources and services.